createdAt,value
2024-04-18T00:00:52.483Z,984.04
2024-04-18T00:01:52.426Z,984.10
2024-04-18T00:02:52.400Z,984.04
2024-04-18T00:03:52.500Z,984.06
2024-04-18T00:04:52.511Z,984.01
2024-04-18T00:05:52.361Z,984.03
2024-04-18T00:06:52.404Z,984.00
2024-04-18T00:07:52.344Z,984.05
2024-04-18T00:08:52.346Z,984.02
2024-04-18T00:09:52.336Z,984.08
2024-04-18T00:10:52.323Z,984.00
2024-04-18T00:11:52.310Z,984.04
2024-04-18T00:12:52.298Z,984.06
2024-04-18T00:13:52.281Z,984.08
2024-04-18T00:14:52.305Z,984.13
2024-04-18T00:15:52.317Z,984.09
2024-04-18T00:16:52.253Z,984.10
2024-04-18T00:17:52.304Z,984.05
2024-04-18T00:18:52.251Z,984.12
2024-04-18T00:19:52.221Z,984.08
2024-04-18T00:20:52.239Z,984.05
2024-04-18T00:21:52.233Z,984.10
2024-04-18T00:22:52.194Z,984.11
2024-04-18T00:23:52.197Z,984.11
2024-04-18T00:24:52.205Z,984.16
2024-04-18T00:25:52.189Z,984.10
2024-04-18T00:26:52.162Z,984.14
2024-04-18T00:27:52.225Z,984.16
2024-04-18T00:28:52.149Z,984.20
2024-04-18T00:29:52.132Z,984.14
2024-04-18T00:30:52.150Z,984.14
2024-04-18T00:31:52.125Z,984.15
2024-04-18T00:32:52.149Z,984.20
2024-04-18T00:33:52.176Z,984.14
2024-04-18T00:34:52.081Z,984.13
2024-04-18T00:35:52.072Z,984.15
2024-04-18T00:36:52.118Z,984.14
2024-04-18T00:37:52.060Z,984.14
2024-04-18T00:38:52.110Z,984.21
2024-04-18T00:39:52.180Z,984.15
2024-04-18T00:40:52.053Z,984.21
2024-04-18T00:41:52.011Z,984.15
2024-04-18T00:42:52.054Z,984.17
2024-04-18T00:43:51.992Z,984.18
2024-04-18T00:44:51.989Z,984.17
2024-04-18T00:45:52.072Z,984.13
2024-04-18T00:46:51.962Z,984.17
2024-04-18T00:47:52.012Z,984.19
2024-04-18T00:48:52.061Z,984.18
2024-04-18T00:49:51.936Z,984.19
2024-04-18T00:50:51.955Z,984.12
2024-04-18T00:51:51.922Z,984.16
2024-04-18T00:52:51.903Z,984.13
2024-04-18T00:53:51.929Z,984.15
2024-04-18T00:54:51.882Z,984.17
2024-04-18T00:55:51.871Z,984.11
2024-04-18T00:56:51.890Z,984.18
2024-04-18T00:57:51.879Z,984.16
2024-04-18T00:58:51.876Z,984.14
2024-04-18T00:59:51.866Z,984.14
2024-04-18T01:00:51.940Z,984.17
2024-04-18T01:01:51.828Z,984.16
2024-04-18T01:02:51.810Z,984.11
2024-04-18T01:03:51.919Z,984.13
2024-04-18T01:04:51.825Z,984.16
2024-04-18T01:05:51.793Z,984.11
2024-04-18T01:06:51.781Z,984.14
2024-04-18T01:07:51.773Z,984.18
2024-04-18T01:08:51.748Z,984.11
2024-04-18T01:09:51.771Z,984.13
2024-04-18T01:10:51.756Z,984.12
2024-04-18T01:11:51.747Z,984.10
2024-04-18T01:12:51.749Z,984.14
2024-04-18T01:13:51.701Z,984.10
2024-04-18T01:14:51.702Z,984.13
2024-04-18T01:15:51.717Z,984.18
2024-04-18T01:16:51.692Z,984.16
2024-04-18T01:17:51.716Z,984.17
2024-04-18T01:18:51.680Z,984.15
2024-04-18T01:19:51.647Z,984.22
2024-04-18T01:20:51.648Z,984.18
2024-04-18T01:21:51.682Z,984.18
2024-04-18T01:22:51.637Z,984.17
2024-04-18T01:23:51.617Z,984.18
2024-04-18T01:24:51.661Z,984.27
2024-04-18T01:25:51.584Z,984.19
2024-04-18T01:26:51.596Z,984.21
2024-04-18T01:27:51.633Z,984.21
2024-04-18T01:28:51.563Z,984.28
2024-04-18T01:29:51.550Z,984.27
2024-04-18T01:30:51.581Z,984.25
2024-04-18T01:31:51.533Z,984.26
2024-04-18T01:32:51.618Z,984.22
2024-04-18T01:33:51.539Z,984.28
2024-04-18T01:34:51.503Z,984.26
2024-04-18T01:35:51.499Z,984.27
2024-04-18T01:36:51.494Z,984.31
2024-04-18T01:37:51.469Z,984.28
2024-04-18T01:38:51.486Z,984.30
2024-04-18T01:39:51.506Z,984.26
2024-04-18T01:40:51.439Z,984.26
2024-04-18T01:41:51.429Z,984.28
2024-04-18T01:42:51.429Z,984.27
2024-04-18T01:43:51.432Z,984.37
2024-04-18T01:44:51.406Z,984.35
2024-04-18T01:45:51.449Z,984.37
2024-04-18T01:46:51.388Z,984.32
2024-04-18T01:47:51.422Z,984.34
2024-04-18T01:48:51.404Z,984.36
2024-04-18T01:49:51.371Z,984.37
2024-04-18T01:50:51.383Z,984.36
2024-04-18T01:51:51.401Z,984.37
2024-04-18T01:52:51.342Z,984.33
2024-04-18T01:53:51.311Z,984.35
2024-04-18T01:54:51.346Z,984.36
2024-04-18T01:55:51.294Z,984.34
2024-04-18T01:56:51.289Z,984.38
2024-04-18T01:57:51.332Z,984.48
2024-04-18T01:58:51.293Z,984.42
2024-04-18T01:59:51.260Z,984.39
2024-04-18T02:00:51.367Z,984.41
2024-04-18T02:01:52.234Z,984.49
2024-04-18T02:02:51.262Z,984.50
2024-04-18T02:03:51.251Z,984.43
2024-04-18T02:04:51.235Z,984.45
2024-04-18T02:05:51.196Z,984.50
2024-04-18T02:06:51.190Z,984.52
2024-04-18T02:07:51.203Z,984.49
2024-04-18T02:08:51.203Z,984.44
2024-04-18T02:09:51.228Z,984.49
2024-04-18T02:10:51.234Z,984.48
2024-04-18T02:11:51.132Z,984.49
2024-04-18T02:12:51.196Z,984.52
2024-04-18T02:13:51.132Z,984.45
2024-04-18T02:14:51.110Z,984.50
2024-04-18T02:15:51.203Z,984.46
2024-04-18T02:16:51.096Z,984.49
2024-04-18T02:17:51.132Z,984.51
2024-04-18T02:18:51.157Z,984.51
2024-04-18T02:19:51.070Z,984.47
2024-04-18T02:20:51.053Z,984.55
2024-04-18T02:21:51.072Z,984.48
2024-04-18T02:22:51.052Z,984.51
2024-04-18T02:23:51.050Z,984.54
2024-04-18T02:24:51.054Z,984.55
2024-04-18T02:25:51.006Z,984.50
2024-04-18T02:26:50.997Z,984.55
2024-04-18T02:27:51.052Z,984.53
2024-04-18T02:28:50.988Z,984.50
2024-04-18T02:29:50.968Z,984.55
2024-04-18T02:30:50.965Z,984.45
2024-04-18T02:31:50.983Z,984.51
2024-04-18T02:32:50.972Z,984.53
2024-04-18T02:33:51.293Z,984.48
2024-04-18T02:34:50.914Z,984.49
2024-04-18T02:35:50.916Z,984.59
2024-04-18T02:36:50.950Z,984.56
2024-04-18T02:37:50.906Z,984.59
2024-04-18T02:38:50.873Z,984.54
2024-04-18T02:39:50.934Z,984.57
2024-04-18T02:40:50.857Z,984.66
2024-04-18T02:41:50.867Z,984.58
2024-04-18T02:42:50.921Z,984.62
2024-04-18T02:43:50.833Z,984.61
2024-04-18T02:44:50.836Z,984.57
2024-04-18T02:45:50.901Z,984.59
2024-04-18T02:46:50.804Z,984.59
2024-04-18T02:47:50.969Z,984.64
2024-04-18T02:48:50.785Z,984.63
2024-04-18T02:49:50.776Z,984.60
2024-04-18T02:50:50.770Z,984.68
2024-04-18T02:51:50.807Z,984.62
2024-04-18T02:52:50.740Z,984.67
2024-04-18T02:53:50.757Z,984.70
2024-04-18T02:54:50.774Z,984.64
2024-04-18T02:55:50.716Z,984.67
2024-04-18T02:56:50.715Z,984.63
2024-04-18T02:57:50.752Z,984.62
2024-04-18T02:58:50.706Z,984.69
2024-04-18T02:59:50.679Z,984.73
2024-04-18T03:00:50.815Z,984.71
2024-04-18T03:01:50.649Z,984.68
2024-04-18T03:02:50.679Z,984.65
2024-04-18T03:03:50.857Z,984.72
2024-04-18T03:04:50.649Z,984.66
2024-04-18T03:05:50.639Z,984.73
2024-04-18T03:06:50.618Z,984.73
2024-04-18T03:07:50.632Z,984.74
2024-04-18T03:08:50.592Z,984.73
2024-04-18T03:09:50.629Z,984.68
2024-04-18T03:10:50.562Z,984.79
2024-04-18T03:11:50.591Z,984.67
2024-04-18T03:12:50.595Z,984.75
2024-04-18T03:13:50.546Z,984.82
2024-04-18T03:14:50.558Z,984.69
2024-04-18T03:15:51.588Z,984.70
2024-04-18T03:16:50.518Z,984.79
2024-04-18T03:17:50.595Z,984.74
2024-04-18T03:18:50.534Z,984.80
2024-04-18T03:19:50.492Z,984.76
2024-04-18T03:20:50.469Z,984.80
2024-04-18T03:21:50.479Z,984.79
2024-04-18T03:22:50.442Z,984.79
2024-04-18T03:23:50.465Z,984.84
2024-04-18T03:24:50.487Z,984.82
2024-04-18T03:25:50.422Z,984.86
2024-04-18T03:26:50.415Z,984.86
2024-04-18T03:27:50.442Z,984.89
2024-04-18T03:28:50.384Z,984.86
2024-04-18T03:29:50.373Z,984.89
2024-04-18T03:30:50.424Z,984.86
2024-04-18T03:31:50.393Z,984.85
2024-04-18T03:32:50.399Z,984.95
2024-04-18T03:33:50.391Z,984.90
2024-04-18T03:34:50.351Z,984.90
2024-04-18T03:35:50.313Z,984.91
2024-04-18T03:36:50.358Z,984.94
2024-04-18T03:37:50.303Z,984.86
2024-04-18T03:38:50.299Z,984.93
2024-04-18T03:39:50.380Z,984.93
2024-04-18T03:40:50.282Z,984.91
2024-04-18T03:41:50.280Z,984.92
2024-04-18T03:42:50.264Z,984.96
2024-04-18T03:43:50.232Z,984.95
2024-04-18T03:44:50.229Z,984.96
2024-04-18T03:45:50.322Z,984.97
2024-04-18T03:46:50.204Z,984.98
2024-04-18T03:47:50.230Z,984.97
2024-04-18T03:48:50.214Z,984.96
2024-04-18T03:49:50.196Z,984.98
2024-04-18T03:50:50.174Z,985.00
2024-04-18T03:51:50.283Z,984.95
2024-04-18T03:52:50.143Z,985.01
2024-04-18T03:53:50.140Z,985.05
2024-04-18T03:55:00.717Z,985.01
2024-04-18T03:55:52.118Z,985.03
2024-04-18T03:56:50.103Z,985.06
2024-04-18T03:57:50.132Z,985.07
2024-04-18T03:58:50.090Z,985.08
2024-04-18T03:59:50.076Z,985.09
2024-04-18T04:00:50.168Z,984.99
2024-04-18T04:01:50.089Z,985.00
2024-04-18T04:02:50.049Z,985.16
2024-04-18T04:03:50.076Z,985.05
2024-04-18T04:04:50.024Z,985.11
2024-04-18T04:05:50.037Z,985.07
2024-04-18T04:06:50.013Z,985.16
2024-04-18T04:07:49.995Z,985.14
2024-04-18T04:08:49.982Z,985.16
2024-04-18T04:09:50.032Z,985.18
2024-04-18T04:10:49.976Z,985.21
2024-04-18T04:11:49.953Z,985.20
2024-04-18T04:12:49.989Z,985.20
2024-04-18T04:13:49.930Z,985.26
2024-04-18T04:14:49.942Z,985.21
2024-04-18T04:15:49.968Z,985.28
2024-04-18T04:16:49.907Z,985.26
2024-04-18T04:17:49.935Z,985.34
2024-04-18T04:18:49.982Z,985.30
2024-04-18T04:19:49.886Z,985.28
2024-04-18T04:20:49.889Z,985.36
2024-04-18T04:21:49.966Z,985.34
2024-04-18T04:22:49.854Z,985.29
2024-04-18T04:23:49.879Z,985.36
2024-04-18T04:24:49.918Z,985.39
2024-04-18T04:25:49.848Z,985.37
2024-04-18T04:26:49.857Z,985.43
2024-04-18T04:27:49.914Z,985.41
2024-04-18T04:28:49.823Z,985.41
2024-04-18T04:29:49.780Z,985.40
2024-04-18T04:30:49.885Z,985.41
2024-04-18T04:31:49.923Z,985.41
2024-04-18T04:32:49.765Z,985.41
2024-04-18T04:33:49.867Z,985.48
2024-04-18T04:34:49.732Z,985.46
2024-04-18T04:35:49.785Z,985.51
2024-04-18T04:36:49.814Z,985.51
2024-04-18T04:37:49.700Z,985.57
2024-04-18T04:38:49.692Z,985.55
2024-04-18T04:39:49.730Z,985.51
2024-04-18T04:40:49.690Z,985.54
2024-04-18T04:41:49.671Z,985.61
2024-04-18T04:42:49.723Z,985.57
2024-04-18T04:43:49.652Z,985.63
2024-04-18T04:44:49.672Z,985.65
2024-04-18T04:45:49.673Z,985.64
2024-04-18T04:46:49.638Z,985.62
2024-04-18T04:47:49.681Z,985.64
2024-04-18T04:48:49.780Z,985.64
2024-04-18T04:49:49.599Z,985.66
2024-04-18T04:50:49.576Z,985.69
2024-04-18T04:51:49.661Z,985.67
2024-04-18T04:52:49.558Z,985.69
2024-04-18T04:53:52.044Z,985.75
2024-04-18T04:54:49.571Z,985.72
2024-04-18T04:55:49.546Z,985.78
2024-04-18T04:56:49.527Z,985.69
2024-04-18T04:57:49.563Z,985.72
2024-04-18T04:58:49.505Z,985.71
2024-04-18T04:59:49.497Z,985.69
2024-04-18T05:00:49.615Z,985.70
2024-04-18T05:01:49.532Z,985.75
2024-04-18T05:02:50.090Z,985.75
2024-04-18T05:03:50.591Z,985.78
2024-04-18T05:04:49.438Z,985.84
2024-04-18T05:05:49.430Z,985.77
2024-04-18T05:06:49.532Z,985.78
2024-04-18T05:07:51.373Z,985.80
2024-04-18T05:08:49.409Z,985.83
2024-04-18T05:09:49.466Z,985.83
2024-04-18T05:10:49.413Z,985.82
2024-04-18T05:11:49.377Z,985.88
2024-04-18T05:12:49.432Z,985.88
2024-04-18T05:13:49.347Z,985.88
2024-04-18T05:14:49.345Z,985.92
2024-04-18T05:15:49.367Z,985.97
2024-04-18T05:16:49.476Z,985.99
2024-04-18T05:17:49.325Z,986.00
2024-04-18T05:18:49.400Z,985.87
2024-04-18T05:19:49.302Z,985.95
2024-04-18T05:20:49.284Z,985.96
2024-04-18T05:21:49.368Z,985.98
2024-04-18T05:22:49.297Z,986.02
2024-04-18T05:23:49.281Z,986.01
2024-04-18T05:24:49.450Z,986.01
2024-04-18T05:25:49.256Z,986.02
2024-04-18T05:26:49.234Z,986.09
2024-04-18T05:27:49.330Z,986.12
2024-04-18T05:28:49.235Z,986.17
2024-04-18T05:29:49.210Z,986.18
2024-04-18T05:30:49.216Z,986.21
2024-04-18T05:31:49.180Z,986.18
2024-04-18T05:32:49.373Z,986.17
2024-04-18T05:33:49.190Z,986.14
2024-04-18T05:34:49.145Z,986.27
2024-04-18T05:35:49.146Z,986.24
2024-04-18T05:36:49.357Z,986.26
2024-04-18T05:37:49.115Z,986.26
2024-04-18T05:38:49.144Z,986.22
2024-04-18T05:39:49.108Z,986.21
2024-04-18T05:40:49.094Z,986.26
2024-04-18T05:41:49.080Z,986.33
2024-04-18T05:42:49.225Z,986.26
2024-04-18T05:43:49.057Z,986.35
2024-04-18T05:44:49.082Z,986.36
2024-04-18T05:45:49.099Z,986.41
2024-04-18T05:46:49.079Z,986.35
2024-04-18T05:47:49.038Z,986.40
2024-04-18T05:48:49.098Z,986.50
2024-04-18T05:49:49.021Z,986.41
2024-04-18T05:50:48.999Z,986.41
2024-04-18T05:51:49.083Z,986.48
2024-04-18T05:52:48.984Z,986.48
2024-04-18T05:53:48.993Z,986.51
2024-04-18T05:54:48.992Z,986.46
2024-04-18T05:55:48.976Z,986.46
2024-04-18T05:56:48.936Z,986.47
2024-04-18T05:57:50.045Z,986.45
2024-04-18T05:58:48.936Z,986.54
2024-04-18T05:59:48.904Z,986.62
2024-04-18T06:00:48.994Z,986.57
2024-04-18T06:01:48.895Z,986.59
2024-04-18T06:02:48.879Z,986.63
2024-04-18T06:03:49.917Z,986.66
2024-04-18T06:04:48.941Z,986.63
2024-04-18T06:05:48.858Z,986.64
2024-04-18T06:06:48.890Z,986.68
2024-04-18T06:07:48.822Z,986.69
2024-04-18T06:08:48.834Z,986.66
2024-04-18T06:09:48.896Z,986.66
2024-04-18T06:10:48.916Z,986.68
2024-04-18T06:11:48.799Z,986.73
2024-04-18T06:12:48.901Z,986.73
2024-04-18T06:13:48.774Z,986.79
2024-04-18T06:14:48.770Z,986.79
2024-04-18T06:15:49.662Z,986.81
2024-04-18T06:16:48.767Z,986.85
2024-04-18T06:17:48.764Z,986.84
2024-04-18T06:18:48.792Z,986.87
2024-04-18T06:19:48.714Z,986.85
2024-04-18T06:20:48.691Z,986.89
2024-04-18T06:21:48.777Z,986.87
2024-04-18T06:22:48.683Z,986.94
2024-04-18T06:23:48.702Z,986.94
2024-04-18T06:24:49.240Z,986.98
2024-04-18T06:25:49.678Z,986.95
2024-04-18T06:26:48.655Z,986.96
2024-04-18T06:27:48.789Z,987.02
2024-04-18T06:28:48.668Z,987.04
2024-04-18T06:29:48.614Z,987.09
2024-04-18T06:30:48.692Z,987.01
2024-04-18T06:31:48.757Z,987.07
2024-04-18T06:32:48.621Z,987.15
2024-04-18T06:33:48.780Z,987.12
2024-04-18T06:34:48.573Z,987.16
2024-04-18T06:35:48.555Z,987.21
2024-04-18T06:36:48.582Z,987.16
2024-04-18T06:37:48.565Z,987.21
2024-04-18T06:38:48.521Z,987.19
2024-04-18T06:39:48.523Z,987.21
2024-04-18T06:40:48.512Z,987.26
2024-04-18T06:41:48.527Z,987.20
2024-04-18T06:42:48.531Z,987.24
2024-04-18T06:43:48.494Z,987.24
2024-04-18T06:44:48.471Z,987.32
2024-04-18T06:45:48.568Z,987.34
2024-04-18T06:46:53.278Z,987.30
2024-04-18T06:47:50.644Z,987.31
2024-04-18T06:48:48.497Z,987.36
2024-04-18T06:49:48.436Z,987.32
2024-04-18T06:50:48.416Z,987.39
2024-04-18T06:51:48.464Z,987.36
2024-04-18T06:52:48.411Z,987.35
2024-04-18T06:53:48.375Z,987.41
2024-04-18T06:54:48.414Z,987.39
2024-04-18T06:55:48.359Z,987.39
2024-04-18T06:56:48.355Z,987.40
2024-04-18T06:57:48.530Z,987.46
2024-04-18T06:58:48.326Z,987.47
2024-04-18T06:59:48.326Z,987.47
2024-04-18T07:00:48.622Z,987.50
2024-04-18T07:01:48.309Z,987.50
2024-04-18T07:02:48.377Z,987.49
2024-04-18T07:03:48.406Z,987.49
2024-04-18T07:04:48.381Z,987.55
2024-04-18T07:05:48.270Z,987.50
2024-04-18T07:06:48.276Z,987.53
2024-04-18T07:07:48.275Z,987.54
2024-04-18T07:08:48.238Z,987.49
2024-04-18T07:09:49.717Z,987.54
2024-04-18T07:10:49.213Z,987.51
2024-04-18T07:11:48.282Z,987.59
2024-04-18T07:12:48.294Z,987.59
2024-04-18T07:13:48.193Z,987.57
2024-04-18T07:14:48.183Z,987.58
2024-04-18T07:15:48.233Z,987.56
2024-04-18T07:16:48.164Z,987.57
2024-04-18T07:17:48.211Z,987.55
2024-04-18T07:18:48.334Z,987.65
2024-04-18T07:19:48.142Z,987.63
2024-04-18T07:20:48.120Z,987.60
2024-04-18T07:21:48.155Z,987.58
2024-04-18T07:22:48.104Z,987.63
2024-04-18T07:23:48.111Z,987.62
2024-04-18T07:24:48.076Z,987.59
2024-04-18T07:25:48.112Z,987.68
2024-04-18T07:26:48.126Z,987.64
2024-04-18T07:27:48.070Z,987.72
2024-04-18T07:28:49.078Z,987.68
2024-04-18T07:29:48.027Z,987.68
2024-04-18T07:30:48.091Z,987.72
2024-04-18T07:31:48.010Z,987.76
2024-04-18T07:32:48.250Z,987.75
2024-04-18T07:33:48.054Z,987.77
2024-04-18T07:34:47.990Z,987.78
2024-04-18T07:35:47.968Z,987.82
2024-04-18T07:36:48.046Z,987.81
2024-04-18T07:37:47.947Z,987.80
2024-04-18T07:38:47.930Z,987.86
2024-04-18T07:39:47.928Z,987.85
2024-04-18T07:40:47.927Z,987.82
2024-04-18T07:41:47.945Z,987.89
2024-04-18T07:42:47.935Z,987.92
2024-04-18T07:43:47.887Z,987.92
2024-04-18T07:44:47.898Z,987.93
2024-04-18T07:45:47.935Z,987.93
2024-04-18T07:46:47.851Z,987.89
2024-04-18T07:47:47.900Z,987.95
2024-04-18T07:48:47.923Z,987.97
2024-04-18T07:49:49.476Z,987.93
2024-04-18T07:50:48.831Z,987.96
2024-04-18T07:51:47.820Z,987.99
2024-04-18T07:52:56.570Z,987.97
2024-04-18T07:53:48.791Z,988.01
2024-04-18T07:54:47.809Z,988.02
2024-04-18T07:55:47.771Z,988.00
2024-04-18T07:56:48.106Z,987.98
2024-04-18T07:57:48.184Z,988.04
2024-04-18T07:58:48.227Z,988.01
2024-04-18T07:59:48.535Z,987.98
2024-04-18T08:00:48.730Z,988.05
2024-04-18T08:01:49.110Z,988.00
2024-04-18T08:02:50.795Z,987.99
2024-04-18T08:03:56.810Z,988.09
2024-04-18T08:04:55.564Z,987.98
2024-04-18T08:05:51.798Z,988.01
2024-04-18T08:06:50.347Z,987.98
2024-04-18T08:07:49.988Z,988.03
2024-04-18T08:08:51.456Z,988.03
2024-04-18T08:09:51.164Z,988.08
2024-04-18T08:11:08.198Z,988.04
2024-04-18T08:12:51.340Z,988.08
2024-04-18T08:13:52.468Z,988.05
2024-04-18T08:14:51.013Z,988.06
2024-04-18T08:16:48.623Z,988.12
2024-04-18T08:17:47.586Z,988.13
2024-04-18T08:18:47.548Z,988.11
2024-04-18T08:19:47.541Z,988.19
2024-04-18T08:20:47.530Z,988.17
2024-04-18T08:21:47.517Z,988.24
2024-04-18T08:22:47.531Z,988.21
2024-04-18T08:23:47.493Z,988.23
2024-04-18T08:24:47.488Z,988.22
2024-04-18T08:25:47.476Z,988.24
2024-04-18T08:26:47.470Z,988.23
2024-04-18T08:27:47.481Z,988.27
2024-04-18T08:28:47.457Z,988.28
2024-04-18T08:29:47.451Z,988.28
2024-04-18T08:30:47.527Z,988.33
2024-04-18T08:31:47.446Z,988.36
2024-04-18T08:32:47.452Z,988.38
2024-04-18T08:33:54.368Z,988.36
2024-04-18T08:34:48.845Z,988.36
2024-04-18T08:35:47.382Z,988.42
2024-04-18T08:36:47.370Z,988.39
2024-04-18T08:37:47.392Z,988.43
2024-04-18T08:38:47.371Z,988.39
2024-04-18T08:39:48.083Z,988.37
2024-04-18T08:40:47.344Z,988.40
2024-04-18T08:41:47.643Z,988.37
2024-04-18T08:42:48.610Z,988.36
2024-04-18T08:43:52.089Z,988.46
2024-04-18T08:45:19.279Z,988.45
2024-04-18T08:45:47.327Z,988.49
2024-04-18T08:46:47.294Z,988.45
2024-04-18T08:47:47.410Z,988.38
2024-04-18T08:48:47.464Z,988.45
2024-04-18T08:49:47.329Z,988.36
2024-04-18T08:50:48.291Z,988.39
2024-04-18T08:51:47.307Z,988.34
2024-04-18T08:52:47.290Z,988.35
2024-04-18T08:53:47.253Z,988.41
2024-04-18T08:54:47.520Z,988.39
2024-04-18T08:55:47.275Z,988.41
2024-04-18T08:56:47.222Z,988.35
2024-04-18T08:57:47.210Z,988.39
2024-04-18T08:58:47.207Z,988.33
2024-04-18T08:59:47.201Z,988.36
2024-04-18T09:00:47.233Z,988.30
2024-04-18T09:01:47.170Z,988.38
2024-04-18T09:02:47.239Z,988.41
2024-04-18T09:03:48.183Z,988.46
2024-04-18T09:04:47.263Z,988.46
2024-04-18T09:05:47.119Z,988.50
2024-04-18T09:06:47.147Z,988.40
2024-04-18T09:07:47.144Z,988.46
2024-04-18T09:08:47.104Z,988.41
2024-04-18T09:09:47.200Z,988.38
2024-04-18T09:10:47.139Z,988.40
2024-04-18T09:11:47.071Z,988.28
2024-04-18T09:12:47.066Z,988.42
2024-04-18T09:13:47.041Z,988.34
2024-04-18T09:14:47.050Z,988.31
2024-04-18T09:15:47.045Z,988.41
2024-04-18T09:16:47.047Z,988.37
2024-04-18T09:17:47.114Z,988.32
2024-04-18T09:18:47.146Z,988.33
2024-04-18T09:19:46.977Z,988.33
2024-04-18T09:20:47.011Z,988.45
2024-04-18T09:21:46.983Z,988.37
2024-04-18T09:22:46.932Z,988.41
2024-04-18T09:23:46.949Z,988.40
2024-04-18T09:24:46.959Z,988.39
2024-04-18T09:25:46.911Z,988.39
2024-04-18T09:26:46.914Z,988.33
2024-04-18T09:27:46.912Z,988.44
2024-04-18T09:28:46.900Z,988.40
2024-04-18T09:29:46.877Z,988.32
2024-04-18T09:30:46.882Z,988.39
2024-04-18T09:31:46.895Z,988.38
2024-04-18T09:32:46.877Z,988.39
2024-04-18T09:33:47.019Z,988.42
2024-04-18T09:34:46.949Z,988.53
2024-04-18T09:35:46.814Z,988.51
2024-04-18T09:36:46.856Z,988.46
2024-04-18T09:37:53.159Z,988.54
2024-04-18T09:38:48.772Z,988.56
2024-04-18T09:39:46.826Z,988.57
2024-04-18T09:40:46.764Z,988.55
2024-04-18T09:41:46.745Z,988.62
2024-04-18T09:42:46.810Z,988.56
2024-04-18T09:43:46.744Z,988.62
2024-04-18T09:44:46.808Z,988.66
2024-04-18T09:45:46.733Z,988.69
2024-04-18T09:46:46.760Z,988.71
2024-04-18T09:47:47.555Z,988.69
2024-04-18T09:48:47.026Z,988.65
2024-04-18T09:49:46.686Z,988.65
2024-04-18T09:50:46.681Z,988.69
2024-04-18T09:51:46.725Z,988.65
2024-04-18T09:52:46.690Z,988.72
2024-04-18T09:53:46.658Z,988.78
2024-04-18T09:54:47.811Z,988.76
2024-04-18T09:55:46.669Z,988.80
2024-04-18T09:56:46.692Z,988.73
2024-04-18T09:57:46.601Z,988.74
2024-04-18T09:58:46.658Z,988.84
2024-04-18T09:59:46.582Z,988.83
2024-04-18T10:00:46.600Z,988.83
2024-04-18T10:01:46.625Z,988.82
2024-04-18T10:02:46.623Z,988.88
2024-04-18T10:03:46.665Z,988.82
2024-04-18T10:04:46.696Z,988.83
2024-04-18T10:05:46.571Z,988.83
2024-04-18T10:06:46.562Z,988.83
2024-04-18T10:07:46.555Z,988.92
2024-04-18T10:08:46.524Z,988.91
2024-04-18T10:09:46.531Z,988.90
2024-04-18T10:10:46.608Z,988.94
2024-04-18T10:11:46.505Z,988.92
2024-04-18T10:12:46.552Z,988.93
2024-04-18T10:13:46.457Z,988.95
2024-04-18T10:14:46.508Z,988.97
2024-04-18T10:15:46.451Z,989.04
2024-04-18T10:16:46.421Z,988.98
2024-04-18T10:17:46.493Z,989.02
2024-04-18T10:18:47.806Z,989.04
2024-04-18T10:19:46.421Z,989.00
2024-04-18T10:20:46.384Z,989.00
2024-04-18T10:22:48.301Z,988.95
2024-04-18T10:23:46.364Z,988.93
2024-04-18T10:24:46.367Z,988.93
2024-04-18T10:25:46.383Z,988.92
2024-04-18T10:26:46.379Z,989.00
2024-04-18T10:27:46.413Z,988.95
2024-04-18T10:28:46.351Z,988.96
2024-04-18T10:29:46.316Z,989.01
2024-04-18T10:30:46.327Z,988.90
2024-04-18T10:31:46.362Z,988.89
2024-04-18T10:32:46.409Z,988.88
2024-04-18T10:33:46.428Z,988.93
2024-04-18T10:34:46.274Z,988.87
2024-04-18T10:35:46.272Z,988.91
2024-04-18T10:36:46.357Z,988.88
2024-04-18T10:37:46.235Z,988.97
2024-04-18T10:38:46.275Z,988.81
2024-04-18T10:39:46.261Z,988.86
2024-04-18T10:40:46.282Z,988.88
2024-04-18T10:41:46.229Z,988.91
2024-04-18T10:42:46.293Z,988.83
2024-04-18T10:43:46.221Z,988.87
2024-04-18T10:44:46.178Z,989.00
2024-04-18T10:45:46.221Z,988.95
2024-04-18T10:46:46.124Z,989.00
2024-04-18T10:47:46.227Z,988.96
2024-04-18T10:48:46.297Z,988.97
2024-04-18T10:49:46.135Z,988.95
2024-04-18T10:50:46.199Z,988.96
2024-04-18T10:51:46.101Z,988.91
2024-04-18T10:52:46.099Z,988.94
2024-04-18T10:53:46.137Z,988.95
2024-04-18T10:54:46.155Z,988.92
2024-04-18T10:55:46.113Z,988.94
2024-04-18T10:56:46.091Z,988.90
2024-04-18T10:57:46.082Z,988.95
2024-04-18T10:58:46.046Z,988.91
2024-04-18T10:59:46.062Z,988.89
2024-04-18T11:00:46.114Z,988.89
2024-04-18T11:01:46.092Z,988.88
2024-04-18T11:02:46.106Z,988.90
2024-04-18T11:03:46.182Z,988.90
2024-04-18T11:04:46.114Z,988.91
2024-04-18T11:05:45.991Z,988.88
2024-04-18T11:06:46.030Z,988.98
2024-04-18T11:07:45.950Z,988.97
2024-04-18T11:08:45.956Z,988.94
2024-04-18T11:09:45.941Z,988.92
2024-04-18T11:10:45.926Z,988.85
2024-04-18T11:11:45.895Z,988.89
2024-04-18T11:12:45.888Z,988.76
2024-04-18T11:13:45.914Z,988.77
2024-04-18T11:14:46.007Z,988.80
2024-04-18T11:15:45.903Z,988.77
2024-04-18T11:16:45.879Z,988.71
2024-04-18T11:17:45.961Z,988.70
2024-04-18T11:18:46.007Z,988.73
2024-04-18T11:19:45.842Z,988.69
2024-04-18T11:20:45.834Z,988.75
2024-04-18T11:21:45.814Z,988.73
2024-04-18T11:22:48.075Z,988.75
2024-04-18T11:23:51.539Z,988.81
2024-04-18T11:24:46.879Z,988.86
2024-04-18T11:25:45.757Z,988.84
2024-04-18T11:26:45.739Z,988.84
2024-04-18T11:27:45.749Z,988.91
2024-04-18T11:28:45.732Z,988.91
2024-04-18T11:29:45.726Z,988.91
2024-04-18T11:30:45.756Z,988.90
2024-04-18T11:31:45.730Z,988.88
2024-04-18T11:32:45.794Z,988.90
2024-04-18T11:33:45.733Z,988.82
2024-04-18T11:34:47.153Z,988.82
2024-04-18T11:35:45.664Z,988.84
2024-04-18T11:36:45.714Z,988.86
2024-04-18T11:37:45.614Z,988.87
2024-04-18T11:38:45.616Z,988.83
2024-04-18T11:39:45.667Z,988.87
2024-04-18T11:40:45.624Z,988.85
2024-04-18T11:41:45.616Z,988.84
2024-04-18T11:42:45.690Z,988.86
2024-04-18T11:43:45.571Z,988.74
2024-04-18T11:44:45.570Z,988.83
2024-04-18T11:45:45.580Z,988.78
2024-04-18T11:46:45.569Z,988.82
2024-04-18T11:47:45.614Z,988.77
2024-04-18T11:48:45.610Z,988.72
2024-04-18T11:49:45.522Z,988.70
2024-04-18T11:50:45.489Z,988.77
2024-04-18T11:51:45.512Z,988.75
2024-04-18T11:52:45.470Z,988.69
2024-04-18T11:53:45.498Z,988.77
2024-04-18T11:54:45.475Z,988.73
2024-04-18T11:55:45.450Z,988.77
2024-04-18T11:56:45.465Z,988.70
2024-04-18T11:57:45.437Z,988.67
2024-04-18T11:58:45.446Z,988.72
2024-04-18T11:59:45.434Z,988.71
2024-04-18T12:00:45.506Z,988.65
2024-04-18T12:01:45.408Z,988.72
2024-04-18T12:02:45.385Z,988.65
2024-04-18T12:03:45.442Z,988.74
2024-04-18T12:04:45.387Z,988.71
2024-04-18T12:05:45.474Z,988.69
2024-04-18T12:06:45.442Z,988.75
2024-04-18T12:07:45.387Z,988.71
2024-04-18T12:08:46.312Z,988.71
2024-04-18T12:09:45.353Z,988.68
2024-04-18T12:10:45.322Z,988.71
2024-04-18T12:11:45.391Z,988.72
2024-04-18T12:12:45.318Z,988.68
2024-04-18T12:13:45.318Z,988.72
2024-04-18T12:14:45.291Z,988.78
2024-04-18T12:15:45.396Z,988.77
2024-04-18T12:16:45.300Z,988.87
2024-04-18T12:17:45.278Z,988.82
2024-04-18T12:18:45.324Z,988.83
2024-04-18T12:19:45.425Z,988.80
2024-04-18T12:20:45.250Z,988.84
2024-04-18T12:21:45.244Z,988.82
2024-04-18T12:22:45.201Z,988.86
2024-04-18T12:23:45.174Z,988.77
2024-04-18T12:24:45.225Z,988.85
2024-04-18T12:25:45.180Z,988.80
2024-04-18T12:26:45.168Z,988.81
2024-04-18T12:27:45.173Z,988.89
2024-04-18T12:28:45.142Z,988.83
2024-04-18T12:29:45.143Z,988.82
2024-04-18T12:30:45.279Z,988.81
2024-04-18T12:31:45.156Z,988.87